Latest Weather Observations for Thargomindah

IDQ60801

Issued at 12:35 pm EST Saturday 22 November 2014 (issued every 30 minutes, with the page automatically refreshed every 10 minutes)

About weather observations | Map of weather stations | Latest weather observations for QLD | Other Formats
Station Details ID: 045025 Name: THARGOMINDAH AIRPORT Lat: -27.99 Lon: 143.81 Height: 130.89 m
Data from the previous 72 hours. | See also: Recent months at Thargomindah
Date/Time
EST
Temp
°C
App
Temp
°C
Dew
Point
Rel
Hum
%
Delta-T
°C
Wind Press
QNH
hPa
Press
MSL
hPa
Rain
since 9 am
mm
Dir
 
Spd
km/h
Gust
km/h
Spd
kts
Gust
kts
22/12:30pm 41.8 - - - - NNW 13 22 7 12 1009.6 - 0.0
22/12:00pm 41.3 36.7 3.6 10 20.5 NW 17 22 9 12 1010.2 1009.3 0.0
22/11:30am 41.8 37.1 5.3 11 20.4 N 19 24 10 13 1010.5 - 0.0
22/11:00am 40.2 35.9 5.4 12 19.3 NNE 17 24 9 13 1010.9 - 0.0
22/10:30am 39.5 35.5 4.8 12 19.0 NNE 15 26 8 14 1011.1 - 0.0
22/10:00am 39.0 34.2 5.6 13 18.5 N 20 32 11 17 1011.3 - 0.0
22/09:30am 38.2 32.9 5.0 13 18.2 NNE 22 32 12 17 1011.4 - 0.0
22/09:00am 36.5 31.5 4.7 14 17.2 NE 20 30 11 16 1011.5 1010.7 0.0
22/08:30am 35.4 30.1 4.8 15 16.4 NE 22 32 12 17 1011.6 - 0.0
22/08:00am 34.1 29.1 4.7 16 15.7 NE 20 30 11 16 1011.4 - 0.0
22/07:30am 31.9 26.7 5.4 19 14.1 NE 22 30 12 16 1011.4 - 0.0
22/07:00am 29.2 26.0 5.3 22 12.5 NE 11 15 6 8 1011.3 - 0.0
22/06:30am 27.4 25.0 5.1 24 11.5 ENE 7 11 4 6 1011.0 - 0.0
22/06:00am 26.0 23.5 5.0 26 10.7 E 7 7 4 4 1010.6 1009.7 0.0
22/05:30am 25.1 22.8 4.8 27 10.3 E 6 7 3 4 1010.3 - 0.0
22/05:00am 25.2 22.3 4.9 27 10.3 E 9 11 5 6 1009.9 - 0.0
22/04:30am 25.5 22.6 4.6 26 10.6 ENE 9 11 5 6 1009.8 - 0.0
22/04:00am 26.0 23.1 4.5 25 10.9 E 9 11 5 6 1009.6 - 0.0
22/03:30am 26.6 23.8 5.0 25 11.1 E 9 11 5 6 1009.5 - 0.0
22/03:00am 26.5 24.0 4.9 25 11.1 E 7 9 4 5 1009.3 1008.4 0.0
22/02:30am 27.0 24.2 5.3 25 11.2 E 9 11 5 6 1009.2 - 0.0
22/02:00am 27.6 25.2 5.2 24 11.6 E 7 9 4 5 1009.3 - 0.0
22/01:30am 28.3 25.9 5.2 23 12.0 E 7 9 4 5 1009.4 - 0.0
22/01:00am 28.4 26.0 5.3 23 12.0 E 7 7 4 4 1009.7 - 0.0
22/12:30am 29.3 26.8 4.7 21 12.8 NE 7 9 4 5 1010.0 - 0.0
22/12:00am 30.5 27.8 5.7 21 13.2 ESE 9 9 5 5 1010.1 1009.2 0.0
 
Date/Time
EST
Temp
°C
App
Temp
°C
Dew
Point
Rel
Hum
%
Delta-T
°C
Wind Press
QNH
hPa
Press
MSL
hPa
Rain
since 9 am
mm
Dir
 
Spd
km/h
Gust
km/h
Spd
kts
Gust
kts
21/11:30pm 30.6 27.9 5.8 21 13.2 SE 9 11 5 6 1010.2 - 0.0
21/11:00pm 31.5 28.5 5.8 20 13.7 SE 11 13 6 7 1010.4 - 0.0
21/10:30pm 32.2 29.1 5.7 19 14.2 SE 11 13 6 7 1010.4 - 0.0
21/10:00pm 32.6 29.6 6.0 19 14.4 SE 11 13 6 7 1010.4 - 0.0
21/09:30pm 33.4 30.4 5.9 18 14.9 SE 11 15 6 8 1010.2 - 0.0
21/09:00pm 33.7 30.7 6.1 18 15.0 SE 11 13 6 7 1010.0 1009.1 0.0
21/08:30pm 34.8 31.5 6.2 17 15.7 SSE 13 15 7 8 1009.7 - 0.0
21/08:00pm 35.5 32.1 5.8 16 16.2 SSE 13 19 7 10 1009.4 - 0.0
21/07:30pm 36.2 32.1 6.4 16 16.5 S 17 20 9 11 1009.1 - 0.0
21/07:00pm 36.9 31.8 6.0 15 17.0 S 22 32 12 17 1008.8 - 0.0
21/06:30pm 37.6 32.3 6.6 15 17.3 SSW 24 32 13 17 1008.6 - 0.0
21/06:00pm 38.3 33.6 6.1 14 17.9 SSW 20 33 11 18 1008.4 1007.5 0.0
21/05:30pm 38.8 33.4 6.5 14 18.1 SW 24 35 13 19 1008.1 - 0.0
21/05:00pm 39.1 33.4 6.7 14 18.3 SSW 26 37 14 20 1007.9 - 0.0
21/04:30pm 39.7 34.1 7.2 14 18.5 SW 26 37 14 20 1007.9 - 0.0
21/04:12pm 39.5 32.7 7.1 14 18.4 SSW 32 50 17 27 1007.8 - 0.0
21/04:00pm 39.7 32.5 6.1 13 18.8 SSW 33 50 18 27 1007.8 - 0.0
21/03:52pm 39.8 32.8 6.2 13 18.9 WSW 32 50 17 27 1008.1 - 0.0
21/03:30pm 39.2 32.5 5.7 13 18.6 SSW 30 43 16 23 1008.2 - 0.0
21/03:10pm 40.2 32.0 6.5 13 19.0 SSW 39 57 21 31 1008.2 - 0.0
21/03:08pm 39.9 32.0 6.3 13 18.9 SSW 37 48 20 26 1008.3 - 0.0
21/03:02pm 39.9 33.7 6.3 13 18.9 WSW 28 48 15 26 1008.5 - 0.0
21/03:00pm 39.9 33.7 6.3 13 18.9 WSW 28 46 15 25 1008.6 1007.6 0.0
21/02:53pm 40.4 34.1 5.5 12 19.4 SW 28 46 15 25 1008.7 - 0.0
21/02:30pm 40.1 35.4 5.3 12 19.3 SW 19 44 10 24 1009.0 - 0.0
21/02:07pm 39.9 33.5 5.1 12 19.2 WSW 28 46 15 25 1009.4 - 0.0
21/02:00pm 39.8 33.4 5.1 12 19.2 SW 28 43 15 23 1009.5 - 0.0
21/01:52pm 39.7 33.5 6.1 13 18.8 SW 28 46 15 25 1009.4 - 0.0
21/01:30pm 39.9 34.1 6.3 13 18.9 SW 26 48 14 26 1009.8 - 0.0
21/01:18pm 39.5 32.3 6.0 13 18.7 SW 33 52 18 28 1010.0 - 0.0
21/01:00pm 39.7 33.5 6.1 13 18.8 WSW 28 46 15 25 1010.1 - 0.0
21/12:30pm 39.7 33.5 6.1 13 18.8 WSW 28 41 15 22 1010.5 - 0.0
21/12:00pm 38.6 33.2 6.3 14 18.1 SSW 24 32 13 17 1010.8 1009.9 0.0
21/11:30am 38.2 32.7 6.0 14 17.9 SSW 24 37 13 20 1011.3 - 0.0
21/11:00am 37.1 32.4 6.2 15 17.1 SSW 20 28 11 15 1011.6 - 0.0
21/10:30am 36.1 31.5 5.4 15 16.7 SSW 19 32 10 17 1011.8 - 0.0
21/10:00am 35.5 32.1 5.8 16 16.2 S 13 20 7 11 1012.0 - 0.0
21/09:30am 35.0 30.7 5.4 16 16.0 S 17 20 9 11 1012.0 - 0.0
21/09:00am 33.5 30.1 4.2 16 15.4 SE 11 20 6 11 1012.3 1011.4 0.0
21/08:30am 32.9 29.1 3.8 16 15.2 ESE 13 20 7 11 1012.0 - 0.0
21/08:00am 31.8 27.7 4.6 18 14.3 ESE 15 20 8 11 1011.7 - 0.0
21/07:30am 30.1 27.1 6.1 22 12.8 SE 11 17 6 9 1011.7 - 0.0
21/07:00am 28.1 25.3 5.0 23 12.0 SE 9 17 5 9 1011.3 - 0.0
21/06:30am 27.1 24.2 4.8 24 11.4 SSE 9 13 5 7 1010.7 - 0.0
21/06:00am 24.4 21.8 3.1 25 10.4 SSE 6 6 3 3 1010.3 1009.4 0.0
21/05:30am 24.1 21.3 3.4 26 10.1 S 7 9 4 5 1010.0 - 0.0
21/05:00am 23.8 21.1 2.6 25 10.2 SSE 6 7 3 4 1009.8 - 0.0
21/04:30am 25.0 22.2 3.0 24 10.8 S 7 9 4 5 1009.4 - 0.0
21/04:00am 25.6 22.4 2.9 23 11.1 S 9 9 5 5 1009.1 - 0.0
21/03:30am 26.3 23.2 3.5 23 11.4 S 9 11 5 6 1009.0 - 0.0
21/03:00am 27.0 23.5 3.5 22 11.8 S 11 15 6 8 1008.9 1008.0 0.0
21/02:30am 27.9 24.0 3.6 21 12.3 S 13 15 7 8 1008.9 - 0.0
21/02:00am 29.2 24.6 3.9 20 12.9 S 17 20 9 11 1008.6 - 0.0
21/01:30am 29.5 24.9 3.5 19 13.2 S 17 22 9 12 1008.9 - 0.0
21/01:00am 29.9 24.5 1.4 16 14.0 SSW 19 22 10 12 1009.1 - 0.0
21/12:30am 29.2 24.2 -4.3 11 14.8 SW 13 17 7 9 1009.3 - 0.0
21/12:00am 28.3 23.7 -3.8 12 14.3 WSW 11 15 6 8 1009.2 1008.3 0.0
 
Date/Time
EST
Temp
°C
App
Temp
°C
Dew
Point
Rel
Hum
%
Delta-T
°C
Wind Press
QNH
hPa
Press
MSL
hPa
Rain
since 9 am
mm
Dir
 
Spd
km/h
Gust
km/h
Spd
kts
Gust
kts
20/11:30pm 27.6 23.7 -4.3 12 13.9 W 7 7 4 4 1009.1 - 0.0
20/11:00pm 28.1 24.5 -3.9 12 14.1 WSW 6 6 3 3 1009.2 - 0.0
20/10:30pm 29.4 25.6 -4.1 11 14.9 WSW 7 7 4 4 1009.2 - 0.0
20/10:00pm 31.0 26.8 -4.1 10 15.8 SW 9 9 5 5 1009.1 - 0.0
20/09:30pm 31.4 26.8 -3.8 10 16.0 WSW 11 13 6 7 1009.0 - 0.0
20/09:00pm 31.3 27.7 -3.9 10 16.0 SW 6 6 3 3 1008.6 1007.7 0.0
20/08:30pm 33.1 28.9 -4.0 9 17.0 WSW 9 9 5 5 1008.5 - 0.0
20/08:00pm 34.1 30.0 -3.2 9 17.5 WSW 9 11 5 6 1008.1 - 0.0
20/07:30pm 35.1 31.1 -2.5 9 17.9 WSW 9 11 5 6 1007.7 - 0.0
20/07:00pm 36.6 32.5 -3.0 8 18.9 WSW 9 11 5 6 1007.4 - 0.0
20/06:30pm 37.6 32.8 -2.2 8 19.4 WSW 13 17 7 9 1007.1 - 0.0
20/06:00pm 38.5 33.4 -1.6 8 19.9 W 15 22 8 12 1006.8 1006.0 0.0
20/05:30pm 39.6 33.7 -2.6 7 20.7 W 19 26 10 14 1006.5 - 0.0
20/05:00pm 39.9 34.0 -0.5 8 20.5 W 20 30 11 16 1006.5 - 0.0
20/04:30pm 39.7 34.4 -0.7 8 20.4 WSW 17 26 9 14 1006.5 - 0.0
20/04:00pm 40.4 35.5 -0.2 8 20.8 W 15 24 8 13 1006.8 - 0.0
20/03:30pm 40.3 34.5 -0.3 8 20.7 W 20 28 11 15 1007.1 - 0.0
20/03:00pm 40.6 35.6 1.6 9 20.6 WNW 17 28 9 15 1007.5 1006.7 0.0
20/02:30pm 39.8 34.2 1.0 9 20.1 WNW 20 35 11 19 1007.9 - 0.0
20/02:00pm 39.1 33.4 0.5 9 19.8 NW 20 33 11 18 1008.4 - 0.0
20/01:30pm 38.4 34.3 0.0 9 19.5 N 11 20 6 11 1008.8 - 0.0
20/01:00pm 38.7 33.5 0.2 9 19.6 NW 17 26 9 14 1009.2 - 0.0
20/12:30pm 37.5 32.6 -0.7 9 19.1 NNW 15 28 8 15 1009.6 - 0.0
20/12:00pm 37.3 31.6 -0.9 9 19.0 N 19 28 10 15 1010.3 1009.3 0.0
20/11:30am 37.8 31.7 -2.1 8 19.5 NNE 20 43 11 23 1010.7 - 0.0
20/11:00am 36.2 30.2 -3.3 8 18.7 NNE 19 26 10 14 1011.3 - 0.0
20/10:30am 36.1 30.5 -3.3 8 18.7 N 17 26 9 14 1011.9 - 0.0
20/10:00am 35.6 30.1 -2.1 9 18.2 NNE 17 24 9 13 1012.0 - 0.0
20/09:30am 34.3 27.7 -3.1 9 17.6 NNE 22 28 12 15 1012.1 - 0.0
20/09:00am 34.0 27.0 -3.3 9 17.4 NE 24 30 13 16 1012.3 1011.4 0.0
20/08:30am 32.9 27.7 -2.7 10 16.7 ENE 15 19 8 10 1012.3 - 0.0
20/08:00am 29.9 25.9 -2.6 12 14.9 ENE 9 13 5 7 1012.6 - 0.0
20/07:30am 26.9 23.2 -2.8 14 13.3 NE 7 11 4 6 1012.7 - 0.0
20/07:00am 24.4 21.5 -3.9 15 12.1 E 2 6 1 3 1012.6 - 0.0
20/06:30am 22.9 19.2 -2.6 18 11.0 SE 7 9 4 5 1012.6 - 0.0
20/06:00am 20.9 17.4 -1.6 22 9.8 SE 7 11 4 6 1012.4 1011.5 0.0
20/05:30am 18.5 14.7 -3.6 22 9.0 SSE 7 9 4 5 1012.2 - 0.0
20/05:00am 20.0 15.9 -3.0 21 9.6 SSE 9 9 5 5 1011.9 - 0.0
20/04:30am 19.0 14.7 -5.1 19 9.6 SSW 9 11 5 6 1011.8 - 0.0
20/04:00am 19.5 15.8 -4.7 19 9.7 SSW 6 7 3 4 1011.6 - 0.0
20/03:30am 19.7 16.1 -3.9 20 9.7 SW 6 7 3 4 1011.3 - 0.0
20/03:00am 19.7 16.0 -3.2 21 9.5 E 7 9 4 5 1011.2 1010.3 0.0
20/02:30am 20.5 17.0 -2.5 21 9.8 ESE 6 7 3 4 1011.3 - 0.0
20/02:00am 20.6 16.8 -3.8 19 10.1 E 7 9 4 5 1011.5 - 0.0
20/01:30am 21.7 17.9 -5.2 16 11.0 ESE 6 7 3 4 1011.7 - 0.0
20/01:00am 22.5 18.8 -4.5 16 11.2 ESE 6 7 3 4 1012.1 - 0.0
20/12:30am 23.4 19.8 -3.8 16 11.6 ESE 6 7 3 4 1012.2 - 0.0
20/12:00am 25.5 21.7 -3.9 14 12.7 SE 7 9 4 5 1012.2 1011.3 0.0
 
Date/Time
EST
Temp
°C
App
Temp
°C
Dew
Point
Rel
Hum
%
Delta-T
°C
Wind Press
QNH
hPa
Press
MSL
hPa
Rain
since 9 am
mm
Dir
 
Spd
km/h
Gust
km/h
Spd
kts
Gust
kts
19/11:30pm 25.2 21.0 -4.2 14 12.6 ESE 9 13 5 7 1012.1 - 0.0
19/11:00pm 25.3 21.1 -4.1 14 12.6 ESE 9 11 5 6 1012.3 - 0.0
19/10:30pm 25.8 22.1 -2.8 15 12.7 SE 7 9 4 5 1012.5 - 0.0
19/10:00pm 26.7 22.5 -4.0 13 13.4 SSE 9 9 5 5 1012.4 - 0.0
19/09:30pm 27.3 23.4 -4.6 12 13.8 SSE 7 9 4 5 1012.3 - 0.0
19/09:00pm 28.2 24.3 -5.0 11 14.4 SSE 7 9 4 5 1012.1 1011.2 0.0
19/08:30pm 30.2 25.5 -4.8 10 15.5 SSE 11 13 6 7 1012.0 - 0.0
19/08:00pm 31.0 26.4 -4.1 10 15.8 SSE 11 13 6 7 1011.9 - 0.0
19/07:30pm 31.7 27.9 -3.6 10 16.1 ESE 7 7 4 4 1011.8 - 0.0
19/07:00pm 33.3 29.1 -3.8 9 17.1 ESE 9 13 5 7 1011.6 - 0.0
19/06:30pm 34.5 30.0 -2.9 9 17.7 SE 11 15 6 8 1011.3 - 0.0
19/06:00pm 34.9 31.0 -4.2 8 18.1 E 7 13 4 7 1011.2 1010.3 0.0
19/05:30pm 35.9 31.7 -3.5 8 18.6 SSW 9 13 5 7 1011.2 - 0.0
19/05:00pm 35.8 32.6 -3.5 8 18.5 WSW 4 11 2 6 1011.3 - 0.0
19/04:30pm 35.3 31.1 -3.9 8 18.3 WSW 9 15 5 8 1011.6 - 0.0
19/04:00pm 35.5 31.7 -3.8 8 18.4 S 7 15 4 8 1011.7 - 0.0
19/03:30pm 35.4 29.7 -3.8 8 18.4 ESE 17 20 9 11 1012.0 - 0.0
19/03:00pm 34.5 30.4 -2.9 9 17.7 W 9 15 5 8 1012.4 1011.5 0.0
19/02:30pm 35.0 29.3 -4.1 8 18.2 S 17 20 9 11 1012.9 - 0.0
19/02:00pm 34.6 30.5 -2.9 9 17.7 W 9 17 5 9 1013.4 - 0.0
19/01:30pm 33.9 29.4 -3.4 9 17.4 NNE 11 15 6 8 1014.0 - 0.0
19/01:00pm 33.5 29.3 -3.7 9 17.2 E 9 13 5 7 1014.5 - 0.0

Other Formats:

Comma delimited format used in spreadsheet applications
http://www.bom.gov.au/fwo/IDQ60801/IDQ60801.95492.axf

JavaScript Object Notation format (JSON) in row-major order
http://www.bom.gov.au/fwo/IDQ60801/IDQ60801.95492.json